Time;durP1;ratioP1;P1;durP2;ratioP2;P2;SDS_P1;SDS_P2;PMS_P1;PMS_P2;Temp;Humidity;BMP_temperature;BMP_pressure;BME280_temperature;BME280_humidity;BME280_pressure;Samples;Min_cycle;Max_cycle;Signal;HPM_P1;HPM_P2
2022/01/04 00:00:50;;;;;;;22.20;9.20;;;8.40;99.90;;;;;;5104138;27;20039;-91
2022/01/04 00:03:16;;;;;;;26.03;9.10;;;8.50;99.90;;;;;;5104780;27;20050;-89
2022/01/04 00:05:42;;;;;;;24.43;9.17;;;8.50;99.90;;;;;;5084141;27;20036;-91
2022/01/04 00:08:11;;;;;;;23.23;9.70;;;8.40;99.90;;;;;;5071242;27;20107;-90
2022/01/04 00:10:37;;;;;;;27.53;9.23;;;8.40;99.90;;;;;;5109508;27;20046;-92
2022/01/04 00:15:47;;;;;;;21.87;8.30;;;8.50;99.90;;;;;;5120212;27;20040;-93
2022/01/04 00:18:13;;;;;;;21.70;8.40;;;8.50;99.90;;;;;;5085142;27;20059;-91
2022/01/04 00:20:39;;;;;;;23.80;8.37;;;8.40;99.90;;;;;;5103176;27;20043;-91
2022/01/04 00:23:05;;;;;;;27.60;8.40;;;8.50;99.90;;;;;;5116726;27;20074;-88
2022/01/04 00:25:31;;;;;;;22.83;8.37;;;8.50;99.90;;;;;;5086924;27;20042;-91
2022/01/04 00:27:58;;;;;;;22.53;8.43;;;8.50;99.90;;;;;;5100786;27;20091;-91
2022/01/04 00:30:28;;;;;;;18.77;7.93;;;8.60;99.90;;;;;;5084912;27;20047;-91
2022/01/04 00:32:54;;;;;;;24.30;7.80;;;8.60;99.90;;;;;;5098692;28;20087;-91
2022/01/04 00:35:20;;;;;;;19.53;9.07;;;8.60;99.90;;;;;;5094401;28;20079;-91
2022/01/04 00:37:46;;;;;;;19.60;7.77;;;8.60;99.90;;;;;;5082501;28;20043;-92
2022/01/04 00:40:12;;;;;;;25.63;8.13;;;8.60;99.90;;;;;;5095306;28;20487;-90
2022/01/04 00:42:38;;;;;;;20.10;8.03;;;8.60;99.90;;;;;;5080428;28;20055;-90
2022/01/04 00:45:05;;;;;;;21.83;7.80;;;8.60;99.90;;;;;;5081016;28;20079;-91
2022/01/04 00:47:44;;;;;;;21.50;7.60;;;8.60;99.90;;;;;;5094315;28;20054;-91
2022/01/04 00:50:09;;;;;;;25.10;8.13;;;8.60;99.90;;;;;;5097728;27;20682;-92
2022/01/04 00:52:35;;;;;;;24.43;7.30;;;8.60;99.90;;;;;;5113456;28;20042;-90
2022/01/04 00:55:01;;;;;;;23.30;7.97;;;8.60;99.90;;;;;;5113827;28;20450;-90
2022/01/04 00:57:27;;;;;;;29.80;8.10;;;8.60;99.90;;;;;;5111726;28;20506;-92
2022/01/04 00:59:52;;;;;;;19.73;8.17;;;8.60;99.90;;;;;;5059453;28;20036;-91
2022/01/04 01:02:18;;;;;;;24.10;7.70;;;8.60;99.90;;;;;;5079694;28;20122;-91
2022/01/04 01:04:44;;;;;;;19.03;7.23;;;8.60;99.90;;;;;;5097905;28;20103;-91
2022/01/04 01:07:10;;;;;;;27.37;8.10;;;8.60;99.90;;;;;;5066472;28;20072;-91
2022/01/04 01:09:44;;;;;;;19.43;8.27;;;8.50;99.90;;;;;;5080337;28;20048;-91
2022/01/04 01:12:11;;;;;;;29.77;8.23;;;8.50;99.90;;;;;;5065612;28;20055;-91
2022/01/04 01:14:37;;;;;;;21.17;7.77;;;8.50;99.90;;;;;;5077691;28;20044;-91
2022/01/04 01:17:02;;;;;;;23.07;7.63;;;8.50;99.90;;;;;;5097097;28;20042;-89
2022/01/04 01:19:28;;;;;;;19.63;7.13;;;8.50;99.90;;;;;;5062334;28;20043;-90
2022/01/04 01:21:54;;;;;;;21.07;7.77;;;8.50;99.90;;;;;;5081401;28;20075;-91
2022/01/04 01:24:20;;;;;;;18.23;8.00;;;8.50;99.90;;;;;;5098412;28;20539;-92
2022/01/04 01:26:45;;;;;;;19.10;8.00;;;8.40;99.90;;;;;;5115218;28;20467;-91
2022/01/04 01:29:11;;;;;;;24.00;8.70;;;8.40;99.90;;;;;;5081334;28;20044;-91
2022/01/04 01:31:37;;;;;;;22.47;8.07;;;8.40;99.90;;;;;;5058144;28;20108;-91
2022/01/04 01:34:03;;;;;;;18.73;8.07;;;8.30;99.90;;;;;;5095917;28;20055;-92
2022/01/04 01:36:29;;;;;;;23.73;8.13;;;8.30;99.90;;;;;;5114344;28;20048;-91
2022/01/04 01:38:54;;;;;;;21.67;7.60;;;8.30;99.90;;;;;;5095424;28;20043;-90
2022/01/04 01:41:20;;;;;;;24.17;8.03;;;8.30;99.90;;;;;;5059390;28;20104;-92
2022/01/04 01:43:47;;;;;;;28.37;9.50;;;8.30;99.90;;;;;;5092277;28;20039;-91
2022/01/04 01:46:13;;;;;;;20.20;8.23;;;8.30;99.90;;;;;;5113404;28;20107;-89
2022/01/04 01:48:38;;;;;;;21.60;8.63;;;8.30;99.90;;;;;;5079721;28;20039;-90
2022/01/04 01:51:05;;;;;;;22.00;8.10;;;8.30;99.90;;;;;;5081335;28;20055;-90
2022/01/04 01:53:31;;;;;;;25.43;9.27;;;8.30;99.90;;;;;;5081656;28;20043;-92
2022/01/04 01:55:57;;;;;;;25.93;8.67;;;8.30;99.90;;;;;;5064320;28;20048;-93
2022/01/04 01:58:23;;;;;;;28.57;8.90;;;8.40;99.90;;;;;;5112847;28;20046;-91
2022/01/04 02:00:49;;;;;;;23.43;9.23;;;8.30;99.90;;;;;;5063295;28;20044;-92
2022/01/04 02:03:14;;;;;;;30.33;9.70;;;8.40;99.90;;;;;;5092534;28;20093;-92
2022/01/04 02:05:40;;;;;;;20.97;9.60;;;8.40;99.90;;;;;;5061314;28;20040;-89
2022/01/04 02:08:07;;;;;;;20.03;9.27;;;8.40;99.90;;;;;;5105066;28;20117;-91
2022/01/04 02:10:33;;;;;;;30.83;9.73;;;8.40;99.90;;;;;;5111117;28;20046;-90
2022/01/04 02:12:59;;;;;;;28.93;10.10;;;8.50;99.90;;;;;;5078758;28;20177;-90
2022/01/04 02:15:26;;;;;;;24.50;9.43;;;8.40;99.90;;;;;;5095664;28;20036;-89
2022/01/04 02:17:52;;;;;;;24.13;10.03;;;8.40;99.90;;;;;;5097812;28;20044;-90
2022/01/04 02:20:18;;;;;;;30.03;9.27;;;8.50;99.90;;;;;;5102429;28;20051;-91
2022/01/04 02:22:44;;;;;;;23.47;10.93;;;8.40;99.90;;;;;;5066449;28;20051;-90
2022/01/04 02:25:11;;;;;;;26.73;9.93;;;8.40;99.90;;;;;;5110841;28;20075;-90
2022/01/04 02:27:38;;;;;;;25.67;11.83;;;8.50;99.90;;;;;;5070238;28;20040;-91
2022/01/04 02:30:07;;;;;;;24.33;10.33;;;8.50;99.90;;;;;;5083548;28;20511;-90
2022/01/04 02:32:33;;;;;;;26.60;9.93;;;8.50;99.90;;;;;;5121333;27;20050;-89
2022/01/04 02:34:59;;;;;;;29.40;10.80;;;8.50;99.90;;;;;;5121646;27;20114;-89
2022/01/04 02:37:27;;;;;;;28.30;9.90;;;8.50;99.90;;;;;;5105711;27;20039;-90
2022/01/04 02:39:54;;;;;;;27.93;10.13;;;8.50;99.90;;;;;;5100371;27;20048;-90
2022/01/04 02:42:20;;;;;;;27.40;10.37;;;8.50;99.90;;;;;;5105787;27;20043;-90
2022/01/04 02:44:46;;;;;;;29.97;10.57;;;8.50;99.90;;;;;;5103761;27;20068;-90
2022/01/04 02:47:13;;;;;;;20.90;9.63;;;8.50;99.90;;;;;;5105332;27;20035;-90
2022/01/04 02:49:39;;;;;;;24.73;9.47;;;8.50;99.90;;;;;;5088222;27;20070;-90
2022/01/04 02:52:05;;;;;;;20.10;9.40;;;8.40;99.90;;;;;;5085684;27;20498;-91
2022/01/04 02:54:31;;;;;;;29.60;10.23;;;8.40;99.90;;;;;;5086584;27;20046;-91
2022/01/04 02:56:57;;;;;;;24.43;9.33;;;8.40;99.90;;;;;;5086911;27;20035;-90
2022/01/04 02:59:23;;;;;;;33.27;10.20;;;8.40;99.90;;;;;;5088824;27;20503;-91
2022/01/04 03:01:48;;;;;;;31.00;10.83;;;8.30;99.90;;;;;;5103506;27;20043;-91
2022/01/04 03:04:14;;;;;;;26.87;8.87;;;8.30;99.90;;;;;;5105910;27;20041;-92
2022/01/04 03:06:40;;;;;;;25.57;10.20;;;8.30;99.90;;;;;;5122392;27;20474;-90
2022/01/04 03:09:06;;;;;;;24.17;9.67;;;8.30;99.90;;;;;;5084708;28;20035;-91
2022/01/04 03:11:34;;;;;;;24.30;9.93;;;8.30;99.90;;;;;;5104829;27;20031;-92
2022/01/04 03:14:00;;;;;;;24.40;9.87;;;8.30;99.90;;;;;;5115538;27;20100;-91
2022/01/04 03:16:26;;;;;;;23.37;9.70;;;8.30;99.90;;;;;;5102196;27;20091;-91
2022/01/04 03:19:07;;;;;;;23.73;9.73;;;8.30;99.90;;;;;;5085631;27;20100;-90
2022/01/04 03:21:38;;;;;;;28.27;9.80;;;8.30;99.90;;;;;;5086639;27;20441;-91
2022/01/04 03:24:05;;;;;;;26.20;10.13;;;8.30;99.90;;;;;;5095128;27;20043;-91
2022/01/04 03:26:32;;;;;;;27.33;9.70;;;8.30;99.90;;;;;;5087155;27;20046;-92
2022/01/04 03:28:58;;;;;;;28.33;11.23;;;8.30;99.90;;;;;;5121870;27;20104;-91
2022/01/04 03:31:24;;;;;;;26.50;10.63;;;8.30;99.90;;;;;;5110136;27;20103;-91
2022/01/04 03:33:50;;;;;;;27.63;10.27;;;8.30;99.90;;;;;;5114621;28;20066;-93
2022/01/04 03:36:18;;;;;;;31.30;11.33;;;8.40;99.90;;;;;;5086468;27;20056;-91
2022/01/04 03:38:43;;;;;;;32.50;11.80;;;8.30;99.90;;;;;;5086396;27;20077;-89
2022/01/04 03:41:10;;;;;;;28.30;11.73;;;8.40;99.90;;;;;;5084690;27;20043;-89
2022/01/04 03:43:37;;;;;;;32.47;11.57;;;8.40;99.90;;;;;;5077863;27;20073;-92
2022/01/04 03:46:06;;;;;;;26.33;11.63;;;8.40;99.90;;;;;;5084922;27;20068;-91
2022/01/04 03:48:33;;;;;;;26.50;12.17;;;8.40;99.90;;;;;;5076166;27;20047;-90
2022/01/04 03:50:59;;;;;;;25.97;11.63;;;8.40;99.90;;;;;;5080713;27;20130;-91
2022/01/04 03:53:25;;;;;;;26.47;11.33;;;8.40;99.90;;;;;;5077031;28;20593;-90
2022/01/04 03:55:51;;;;;;;29.57;11.47;;;8.40;99.90;;;;;;5101819;27;20046;-91
2022/01/04 03:58:17;;;;;;;23.17;11.93;;;8.40;99.90;;;;;;5079586;27;20125;-91
2022/01/04 04:00:42;;;;;;;26.97;11.27;;;8.40;99.90;;;;;;5068770;27;20042;-92
2022/01/04 04:03:08;;;;;;;27.60;11.60;;;8.40;99.90;;;;;;5104540;27;20071;-90
2022/01/04 04:05:34;;;;;;;28.20;10.93;;;8.40;99.90;;;;;;5080818;27;20035;-91
2022/01/04 04:08:00;;;;;;;35.60;12.60;;;8.40;99.90;;;;;;5104706;27;20035;-92
2022/01/04 04:10:25;;;;;;;31.07;12.13;;;8.40;99.90;;;;;;5100797;27;20042;-92
2022/01/04 04:12:51;;;;;;;26.20;12.10;;;8.40;99.90;;;;;;5086786;27;20049;-92
2022/01/04 04:15:17;;;;;;;30.13;12.60;;;8.40;99.90;;;;;;5100890;27;20043;-91
2022/01/04 04:17:45;;;;;;;29.37;13.00;;;8.30;99.90;;;;;;5084571;27;20039;-90
2022/01/04 04:20:11;;;;;;;24.23;11.93;;;8.40;99.90;;;;;;5107277;27;20047;-90
2022/01/04 04:22:37;;;;;;;24.63;12.33;;;8.30;99.90;;;;;;5069621;27;20028;-90
2022/01/04 04:25:03;;;;;;;25.03;11.73;;;8.40;99.90;;;;;;5120277;27;20039;-92
2022/01/04 04:27:28;;;;;;;26.40;12.10;;;8.30;99.90;;;;;;5065967;27;20048;-90
2022/01/04 04:29:54;;;;;;;31.57;13.37;;;8.40;99.90;;;;;;5083972;27;20036;-91
2022/01/04 04:32:20;;;;;;;29.13;12.20;;;8.40;99.90;;;;;;5116348;27;20043;-91
2022/01/04 04:34:46;;;;;;;24.63;11.30;;;8.40;99.90;;;;;;5083949;27;20148;-90
2022/01/04 04:37:11;;;;;;;30.27;13.13;;;8.40;99.90;;;;;;5067929;27;20050;-91
2022/01/04 04:39:37;;;;;;;33.77;13.33;;;8.40;99.90;;;;;;5085097;27;20111;-91
2022/01/04 04:42:04;;;;;;;31.23;12.47;;;8.40;99.90;;;;;;5084565;27;20048;-91
2022/01/04 04:44:29;;;;;;;25.87;12.90;;;8.40;99.90;;;;;;5085088;27;20039;-91
2022/01/04 04:46:55;;;;;;;33.33;13.10;;;8.40;99.90;;;;;;5078587;27;20546;-92
2022/01/04 04:49:21;;;;;;;33.97;13.47;;;8.40;99.90;;;;;;5078461;27;20031;-91
2022/01/04 04:51:47;;;;;;;28.13;13.73;;;8.40;99.90;;;;;;5084856;27;20520;-91
2022/01/04 04:54:13;;;;;;;35.83;12.57;;;8.40;99.90;;;;;;5117773;27;20405;-92
2022/01/04 04:56:39;;;;;;;27.37;12.47;;;8.40;99.90;;;;;;5118470;27;20070;-92
2022/01/04 04:59:09;;;;;;;32.33;14.30;;;8.30;99.90;;;;;;5103553;27;20038;-91
2022/01/04 05:01:36;;;;;;;32.93;13.67;;;8.30;99.90;;;;;;5098196;27;20039;-90
2022/01/04 05:04:02;;;;;;;30.57;13.70;;;8.30;99.90;;;;;;5102857;27;20072;-91
2022/01/04 05:06:27;;;;;;;32.90;14.97;;;8.30;99.90;;;;;;5102260;27;20046;-91
2022/01/04 05:08:53;;;;;;;27.37;13.53;;;8.30;99.90;;;;;;5116404;27;20483;-90
2022/01/04 05:11:19;;;;;;;39.27;15.97;;;8.30;99.90;;;;;;5077311;27;20050;-90
2022/01/04 05:13:45;;;;;;;33.03;13.40;;;8.30;99.90;;;;;;5083291;27;20047;-89
2022/01/04 05:16:10;;;;;;;32.17;13.00;;;8.30;99.90;;;;;;5093082;27;20046;-91
2022/01/04 05:18:36;;;;;;;33.17;15.67;;;8.30;99.90;;;;;;5100509;27;20036;-90
2022/01/04 05:21:03;;;;;;;30.60;15.03;;;8.20;99.90;;;;;;5100709;27;20046;-90
2022/01/04 05:23:29;;;;;;;29.67;14.97;;;8.20;99.90;;;;;;5085263;27;20063;-89
2022/01/04 05:25:55;;;;;;;32.23;14.97;;;8.20;99.90;;;;;;5099609;27;20050;-90
2022/01/04 05:28:21;;;;;;;32.80;15.57;;;8.20;99.90;;;;;;5082757;27;20047;-90
2022/01/04 05:30:47;;;;;;;28.80;13.97;;;8.20;99.90;;;;;;5063392;27;20068;-90
2022/01/04 05:33:13;;;;;;;37.33;14.43;;;8.20;99.90;;;;;;5097727;28;20095;-90
2022/01/04 05:35:39;;;;;;;37.37;15.33;;;8.20;99.90;;;;;;5064000;28;20052;-91
2022/01/04 05:38:05;;;;;;;33.67;14.53;;;8.20;99.90;;;;;;5079086;28;20059;-89
2022/01/04 05:40:30;;;;;;;29.03;14.90;;;8.20;99.90;;;;;;5093621;28;20545;-90
2022/01/04 05:42:56;;;;;;;27.60;13.53;;;8.20;99.90;;;;;;5094484;28;20887;-89
2022/01/04 05:45:22;;;;;;;28.87;13.63;;;8.20;99.90;;;;;;5095837;28;20051;-89
2022/01/04 05:47:48;;;;;;;29.90;13.97;;;8.20;99.90;;;;;;5090679;28;20531;-90
2022/01/04 05:50:14;;;;;;;36.70;14.80;;;8.20;99.90;;;;;;5078588;28;20052;-90
2022/01/04 05:52:40;;;;;;;33.23;14.17;;;8.20;99.90;;;;;;5077729;28;20043;-90
2022/01/04 05:55:06;;;;;;;33.00;13.57;;;8.20;99.90;;;;;;5081241;28;20060;-89
2022/01/04 05:57:32;;;;;;;31.27;13.40;;;8.20;99.90;;;;;;5063723;28;20051;-90
2022/01/04 05:59:59;;;;;;;30.00;13.93;;;8.20;99.90;;;;;;5078373;28;20342;-90
2022/01/04 06:02:25;;;;;;;27.83;13.80;;;8.20;99.90;;;;;;5070890;28;20032;-89
2022/01/04 06:04:51;;;;;;;29.87;14.57;;;8.20;99.90;;;;;;5078786;28;20127;-91
2022/01/04 06:07:18;;;;;;;24.53;13.97;;;8.10;99.90;;;;;;5078218;28;20036;-91
2022/01/04 06:09:47;;;;;;;31.57;13.67;;;8.20;99.90;;;;;;5101304;28;20474;-88
2022/01/04 06:14:56;;;;;;;29.73;14.43;;;8.20;99.90;;;;;;5103468;28;20067;-86
2022/01/04 06:17:32;;;;;;;30.27;14.13;;;8.10;99.90;;;;;;5087665;28;20040;-87
2022/01/04 06:19:59;;;;;;;32.40;14.73;;;8.10;99.90;;;;;;5103518;28;20052;-88
2022/01/04 06:22:26;;;;;;;33.90;14.73;;;8.10;99.90;;;;;;5070289;28;20590;-86
2022/01/04 06:24:53;;;;;;;34.60;14.63;;;8.10;99.90;;;;;;5093023;28;20502;-87
2022/01/04 06:27:20;;;;;;;29.80;14.07;;;8.10;99.90;;;;;;5108320;28;20052;-87
2022/01/04 06:29:47;;;;;;;29.57;14.97;;;8.10;99.90;;;;;;5109207;28;20043;-86
2022/01/04 06:32:14;;;;;;;32.63;14.80;;;8.10;99.90;;;;;;5076682;28;20054;-86
2022/01/04 06:34:42;;;;;;;31.53;13.47;;;8.10;99.90;;;;;;5091657;28;20063;-86
2022/01/04 06:37:08;;;;;;;32.93;15.17;;;8.10;99.90;;;;;;5110295;28;20625;-90
2022/01/04 06:39:35;;;;;;;30.63;14.47;;;8.10;99.90;;;;;;5109073;28;20783;-89
2022/01/04 06:42:01;;;;;;;32.70;14.90;;;8.10;99.90;;;;;;5075366;28;20115;-88
2022/01/04 06:44:27;;;;;;;34.83;14.60;;;8.10;99.90;;;;;;5094413;28;20075;-87
2022/01/04 06:46:52;;;;;;;37.13;15.27;;;8.10;99.90;;;;;;5076868;28;20035;-88
2022/01/04 06:49:19;;;;;;;24.37;13.33;;;8.10;99.90;;;;;;5110976;28;20062;-86
2022/01/04 06:51:46;;;;;;;33.37;14.00;;;8.10;99.90;;;;;;5105208;28;20115;-88
2022/01/04 06:54:15;;;;;;;30.93;13.97;;;8.10;99.90;;;;;;5094690;28;20043;-89
2022/01/04 06:56:41;;;;;;;29.97;13.87;;;8.10;99.90;;;;;;5110521;28;20043;-88
2022/01/04 06:59:07;;;;;;;27.27;13.37;;;8.10;99.90;;;;;;5109771;28;20069;-88
2022/01/04 07:01:34;;;;;;;32.57;15.37;;;8.10;99.90;;;;;;5076562;28;20095;-88
2022/01/04 07:04:00;;;;;;;34.77;14.73;;;8.10;99.90;;;;;;5112068;28;20043;-87
2022/01/04 07:06:26;;;;;;;34.03;14.73;;;8.10;99.90;;;;;;5106315;28;20074;-85
2022/01/04 07:08:53;;;;;;;33.60;14.93;;;8.10;99.90;;;;;;5098904;28;20084;-87
2022/01/04 07:11:19;;;;;;;30.93;14.63;;;8.10;99.90;;;;;;5081539;28;20060;-88
2022/01/04 07:13:44;;;;;;;33.20;14.87;;;8.10;99.90;;;;;;5097984;28;20088;-91
2022/01/04 07:16:11;;;;;;;29.40;15.10;;;8.10;99.90;;;;;;5064868;28;20048;-90
2022/01/04 07:18:37;;;;;;;32.70;15.37;;;8.10;99.90;;;;;;5093061;28;20078;-92
2022/01/04 07:21:03;;;;;;;29.07;14.73;;;8.00;99.90;;;;;;5098631;28;20031;-90
2022/01/04 07:23:29;;;;;;;33.87;15.60;;;8.00;99.90;;;;;;5081712;28;20059;-90
2022/01/04 07:25:55;;;;;;;33.17;14.87;;;8.00;99.90;;;;;;5081861;28;20046;-90
2022/01/04 07:28:22;;;;;;;33.80;16.27;;;8.00;99.90;;;;;;5076885;28;20038;-91
2022/01/04 07:30:48;;;;;;;39.93;16.77;;;8.00;99.90;;;;;;5094765;28;20047;-91
2022/01/04 07:33:15;;;;;;;28.77;15.37;;;8.00;99.90;;;;;;5094912;28;20060;-92
2022/01/04 07:35:41;;;;;;;32.53;16.73;;;8.00;99.90;;;;;;5112481;27;20581;-91
2022/01/04 07:38:07;;;;;;;36.30;18.10;;;8.00;99.90;;;;;;5093981;28;20552;-89
2022/01/04 07:40:33;;;;;;;39.33;18.37;;;8.00;99.90;;;;;;5064053;28;20031;-89
2022/01/04 07:43:00;;;;;;;35.07;17.17;;;8.00;99.90;;;;;;5075128;28;20107;-90
2022/01/04 07:45:33;;;;;;;31.97;17.23;;;8.10;99.90;;;;;;5076604;28;20127;-88
2022/01/04 07:48:00;;;;;;;32.00;15.90;;;8.00;99.90;;;;;;5088403;28;20039;-93
2022/01/04 07:50:27;;;;;;;34.57;15.93;;;8.00;99.90;;;;;;5099292;28;20043;-90
2022/01/04 07:52:53;;;;;;;30.00;14.73;;;8.10;99.90;;;;;;5079477;28;20395;-92
2022/01/04 07:55:19;;;;;;;29.37;14.27;;;8.10;99.90;;;;;;5095603;28;20031;-93
2022/01/04 07:57:45;;;;;;;29.67;14.40;;;8.10;99.90;;;;;;5087687;28;20044;-94
2022/01/04 08:00:15;;;;;;;31.43;14.10;;;8.00;99.90;;;;;;5081292;28;20162;-92
2022/01/04 08:02:45;;;;;;;29.50;14.60;;;8.10;99.90;;;;;;5085222;28;20047;-93
2022/01/04 08:05:11;;;;;;;32.00;14.40;;;8.10;99.90;;;;;;5084726;28;20040;-93
2022/01/04 08:07:37;;;;;;;28.37;15.47;;;8.00;99.90;;;;;;5068868;28;20170;-93
2022/01/04 08:10:04;;;;;;;30.67;15.20;;;8.00;99.90;;;;;;5068687;28;20525;-92
2022/01/04 08:12:30;;;;;;;30.33;14.83;;;8.00;99.90;;;;;;5082844;28;20174;-91
2022/01/04 08:14:56;;;;;;;34.53;16.73;;;8.10;99.90;;;;;;5069305;28;20118;-90
2022/01/04 08:17:22;;;;;;;32.77;16.53;;;8.00;99.90;;;;;;5070606;28;20157;-92
2022/01/04 08:19:50;;;;;;;32.63;16.67;;;8.10;99.90;;;;;;5088817;28;20075;-93
2022/01/04 08:22:16;;;;;;;36.47;16.87;;;8.00;99.90;;;;;;5091851;28;20079;-92
2022/01/04 08:24:42;;;;;;;35.17;17.50;;;8.00;99.90;;;;;;5092272;28;20032;-93
2022/01/04 08:27:08;;;;;;;40.00;18.57;;;8.00;99.90;;;;;;5080968;28;20994;-93
2022/01/04 08:29:34;;;;;;;36.00;17.43;;;8.10;99.90;;;;;;5073288;28;20085;-88
2022/01/04 08:32:00;;;;;;;35.83;17.37;;;8.10;99.90;;;;;;5069967;28;20104;-87
2022/01/04 08:34:26;;;;;;;38.57;18.43;;;8.10;99.90;;;;;;5089518;28;20063;-89
2022/01/04 08:36:52;;;;;;;40.47;17.50;;;8.00;99.90;;;;;;5073806;28;20044;-90
2022/01/04 08:39:19;;;;;;;35.03;17.70;;;8.10;99.90;;;;;;5111388;28;20059;-90
2022/01/04 08:41:46;;;;;;;33.13;17.23;;;8.10;99.90;;;;;;5109276;28;20395;-89
2022/01/04 08:44:12;;;;;;;36.43;17.00;;;8.10;99.90;;;;;;5105171;27;20089;-90
2022/01/04 08:46:39;;;;;;;33.80;16.37;;;8.10;99.90;;;;;;5097865;28;20077;-87
2022/01/04 08:49:09;;;;;;;34.23;17.93;;;8.10;99.90;;;;;;5076914;27;20051;-87
2022/01/04 08:51:36;;;;;;;32.10;17.37;;;8.10;99.90;;;;;;5105150;28;20128;-86
2022/01/04 08:54:02;;;;;;;31.13;16.87;;;8.10;99.90;;;;;;5105517;28;20102;-87
2022/01/04 08:56:28;;;;;;;31.10;16.20;;;8.10;99.90;;;;;;5104358;28;20032;-86
2022/01/04 08:58:55;;;;;;;29.17;13.67;;;8.10;99.90;;;;;;5071282;28;20111;-86
2022/01/04 09:01:21;;;;;;;29.77;14.53;;;8.10;99.90;;;;;;5086952;28;20469;-86
2022/01/04 09:03:46;;;;;;;25.73;13.07;;;8.10;99.90;;;;;;5064823;28;20104;-86
2022/01/04 09:06:12;;;;;;;21.60;11.53;;;8.10;99.90;;;;;;5087387;28;20079;-84
2022/01/04 09:08:38;;;;;;;10.27;4.93;;;8.00;99.90;;;;;;5087499;28;20078;-86
2022/01/04 09:11:04;;;;;;;9.10;3.53;;;7.90;99.90;;;;;;5106847;28;20043;-86
2022/01/04 09:13:36;;;;;;;5.30;2.73;;;7.80;99.90;;;;;;5087287;28;20043;-86
2022/01/04 09:18:50;;;;;;;6.13;2.30;;;7.70;99.90;;;;;;5087246;28;20132;-85
2022/01/04 09:21:24;;;;;;;5.10;2.00;;;7.60;99.90;;;;;;5069727;28;20079;-85
2022/01/04 09:23:50;;;;;;;9.90;2.17;;;7.50;99.90;;;;;;5103977;28;20044;-86
2022/01/04 09:26:18;;;;;;;8.13;2.30;;;7.50;99.90;;;;;;5087220;28;20251;-86
2022/01/04 09:28:44;;;;;;;7.43;2.10;;;7.40;99.90;;;;;;5087945;28;20047;-86
2022/01/04 09:31:13;;;;;;;7.57;2.07;;;7.40;99.90;;;;;;5077461;28;20638;-86
2022/01/04 09:33:40;;;;;;;6.60;2.07;;;7.40;99.90;;;;;;5099089;28;20069;-86
2022/01/04 09:36:06;;;;;;;5.80;2.50;;;7.40;99.90;;;;;;5072919;28;20055;-86
2022/01/04 09:38:32;;;;;;;7.10;2.67;;;7.40;99.90;;;;;;5075486;28;20059;-87
2022/01/04 09:40:59;;;;;;;8.37;2.23;;;7.40;99.90;;;;;;5082790;28;20036;-88
2022/01/04 09:43:25;;;;;;;7.87;2.47;;;7.40;99.90;;;;;;5063257;28;20162;-88
2022/01/04 09:45:52;;;;;;;7.03;2.30;;;7.40;99.90;;;;;;5052225;28;20414;-88
2022/01/04 09:48:19;;;;;;;6.13;2.10;;;7.40;99.90;;;;;;5071708;28;20207;-88
2022/01/04 09:50:47;;;;;;;5.50;2.27;;;7.50;99.90;;;;;;5066241;28;20074;-88
2022/01/04 09:53:21;;;;;;;7.37;2.00;;;7.50;99.90;;;;;;5062880;28;20123;-90
2022/01/04 09:55:51;;;;;;;6.17;2.03;;;7.50;99.90;;;;;;5086336;28;20039;-88
2022/01/04 09:58:19;;;;;;;6.00;2.07;;;7.50;99.90;;;;;;5059409;28;20116;-88
2022/01/04 10:00:46;;;;;;;7.30;2.43;;;7.50;99.90;;;;;;5067373;28;21652;-90
2022/01/04 10:03:19;;;;;;;8.77;2.50;;;7.50;99.90;;;;;;5078581;28;20058;-88
2022/01/04 10:05:45;;;;;;;8.00;2.40;;;7.50;99.90;;;;;;5077007;28;20065;-87
2022/01/04 10:08:13;;;;;;;9.67;3.03;;;7.50;99.90;;;;;;5083073;28;20044;-86
2022/01/04 10:10:40;;;;;;;7.93;2.80;;;7.50;99.90;;;;;;5063119;28;20047;-87
2022/01/04 10:13:09;;;;;;;9.00;2.87;;;7.50;99.90;;;;;;5061091;28;20081;-86
2022/01/04 10:15:40;;;;;;;7.47;2.70;;;7.50;99.90;;;;;;5081051;28;20076;-87
2022/01/04 10:18:12;;;;;;;9.65;3.28;;;7.50;99.90;;;;;;5097665;28;20044;-85
2022/01/04 10:20:46;;;;;;;7.35;2.85;;;7.50;99.90;;;;;;5074412;28;20051;-87
2022/01/04 10:23:18;;;;;;;8.70;2.47;;;7.50;99.90;;;;;;5060151;28;20037;-88
2022/01/04 10:25:45;;;;;;;5.63;2.25;;;7.50;99.90;;;;;;5073719;28;20043;-87
2022/01/04 10:28:26;;;;;;;5.97;1.80;;;7.40;99.90;;;;;;5055430;28;20040;-87
2022/01/04 10:30:51;;;;;;;6.40;1.70;;;7.40;99.90;;;;;;5083153;28;20047;-87
2022/01/04 10:33:22;;;;;;;9.63;1.73;;;7.30;99.90;;;;;;5043086;28;20078;-86
2022/01/04 10:35:50;;;;;;;5.80;1.50;;;7.40;99.90;;;;;;5081009;28;20077;-87
2022/01/04 10:38:16;;;;;;;4.40;1.57;;;7.30;99.90;;;;;;5084366;28;20043;-87
2022/01/04 10:40:59;;;;;;;8.40;1.37;;;7.20;99.90;;;;;;5087430;28;20056;-87
2022/01/04 10:43:56;;;;;;;5.50;1.20;;;7.20;99.90;;;;;;5071903;28;20043;-86
2022/01/04 10:46:41;;;;;;;4.17;1.20;;;7.10;99.90;;;;;;5073516;28;20435;-88
2022/01/04 10:49:19;;;;;;;3.20;1.20;;;7.00;99.90;;;;;;5092573;28;20043;-87
2022/01/04 10:51:47;;;;;;;3.47;1.60;;;7.00;99.90;;;;;;5085150;28;20586;-87
2022/01/04 10:54:19;;;;;;;5.50;1.73;;;7.00;99.90;;;;;;5051276;28;20044;-88
2022/01/04 10:56:45;;;;;;;2.75;1.33;;;7.00;99.90;;;;;;5069792;28;20501;-87
2022/01/04 10:59:12;;;;;;;2.30;1.40;;;7.00;99.90;;;;;;5086274;28;20125;-88
2022/01/04 11:01:46;;;;;;;2.40;1.33;;;6.90;99.90;;;;;;5085585;28;20048;-86
2022/01/04 11:04:14;;;;;;;4.60;1.27;;;6.90;99.90;;;;;;5085673;28;20548;-86
2022/01/04 11:06:41;;;;;;;4.40;1.30;;;6.90;99.90;;;;;;5070866;28;20048;-87
2022/01/04 11:09:08;;;;;;;6.47;1.70;;;6.90;99.90;;;;;;5070987;28;20048;-87
2022/01/04 11:11:34;;;;;;;7.50;1.77;;;6.90;99.90;;;;;;5086436;28;20105;-83
2022/01/04 11:14:00;;;;;;;4.53;1.30;;;6.90;99.90;;;;;;5037097;28;20064;-94
2022/01/04 11:16:29;;;;;;;4.53;1.27;;;6.80;99.90;;;;;;5069712;28;20131;-86
2022/01/04 11:18:56;;;;;;;3.33;1.47;;;6.80;99.90;;;;;;5072671;28;20051;-87
2022/01/04 11:21:25;;;;;;;2.90;1.23;;;6.60;99.90;;;;;;5078436;28;20044;-84
2022/01/04 11:23:52;;;;;;;2.57;1.30;;;6.50;99.90;;;;;;5091477;28;20052;-85
2022/01/04 11:26:20;;;;;;;1.77;1.30;;;6.40;99.90;;;;;;5056516;28;20040;-82
2022/01/04 11:28:49;;;;;;;4.50;1.20;;;6.30;99.90;;;;;;5063443;28;20077;-81
2022/01/04 11:32:05;;;;;;;5.60;1.27;;;6.10;99.90;;;;;;5067592;28;20055;-81
2022/01/04 11:35:07;;;;;;;2.73;1.10;;;6.00;99.90;;;;;;5008748;28;20057;-81
2022/01/04 11:37:32;;;;;;;3.28;0.98;;;5.90;99.90;;;;;;5078550;28;20075;-80
2022/01/04 11:39:58;;;;;;;1.97;1.00;;;5.90;99.90;;;;;;5044479;28;20144;-81
2022/01/04 11:42:30;;;;;;;2.13;0.80;;;5.90;99.90;;;;;;5048312;28;20032;-81
2022/01/04 11:44:56;;;;;;;4.18;1.35;;;5.90;99.90;;;;;;5065164;28;20130;-81
2022/01/04 11:47:32;;;;;;;1.00;0.70;;;5.90;99.90;;;;;;5038137;28;20134;-81
2022/01/04 11:50:13;;;;;;;3.47;0.70;;;6.00;99.90;;;;;;5049045;28;20519;-81
2022/01/04 11:52:55;;;;;;;1.53;0.93;;;6.00;99.90;;;;;;5065667;28;20045;-81
2022/01/04 11:55:26;;;;;;;;;;;6.10;99.90;;;;;;5084439;28;20045;-80
2022/01/04 11:57:58;;;;;;;2.73;1.00;;;6.00;99.90;;;;;;5054065;28;19924;-81
2022/01/04 12:00:30;;;;;;;3.43;0.77;;;6.00;99.90;;;;;;5086724;28;20059;-80
2022/01/04 12:03:07;;;;;;;;;;;6.00;99.90;;;;;;5060507;28;20071;-81
2022/01/04 12:05:35;;;;;;;2.83;0.90;;;6.00;99.90;;;;;;5065953;28;19924;-81
2022/01/04 12:08:15;;;;;;;2.90;0.90;;;6.00;99.90;;;;;;5067662;28;20047;-81
2022/01/04 12:10:41;;;;;;;4.57;1.10;;;6.00;99.90;;;;;;5061388;28;20051;-80
2022/01/04 12:13:17;;;;;;;2.80;1.00;;;6.00;99.90;;;;;;5062663;28;20334;-81
2022/01/04 12:15:49;;;;;;;3.10;1.20;;;6.00;99.90;;;;;;5048353;28;20048;-81
2022/01/04 12:18:23;;;;;;;1.50;0.60;;;6.00;99.90;;;;;;5082156;28;20070;-81
2022/01/04 12:20:51;;;;;;;3.90;0.87;;;5.90;99.90;;;;;;5066057;28;20084;-81
2022/01/04 12:23:26;;;;;;;2.90;0.87;;;5.90;99.90;;;;;;5049877;28;20117;-80
2022/01/04 12:28:34;;;;;;;3.37;0.50;;;5.60;99.90;;;;;;5096912;27;20054;-80
2022/01/04 12:31:24;;;;;;;4.30;0.67;;;5.50;99.90;;;;;;5051667;28;20052;-81
2022/01/04 12:33:55;;;;;;;1.67;0.53;;;5.50;99.90;;;;;;5093453;28;20127;-81
2022/01/04 12:36:36;;;;;;;2.03;0.77;;;5.30;99.90;;;;;;5072792;28;20526;-80
2022/01/04 12:39:08;;;;;;;5.15;0.82;;;5.30;99.90;;;;;;5083407;28;20070;-81
2022/01/04 12:41:36;;;;;;;2.92;0.77;;;5.30;99.90;;;;;;5086699;28;20040;-80
2022/01/04 12:44:04;;;;;;;3.63;0.70;;;5.40;99.90;;;;;;5095195;28;20086;-80
2022/01/04 12:46:31;;;;;;;3.73;1.07;;;5.40;99.90;;;;;;5087694;28;20047;-80
2022/01/04 12:49:01;;;;;;;3.37;0.70;;;5.40;99.90;;;;;;5093808;28;20043;-81
2022/01/04 12:51:26;;;;;;;5.27;1.10;;;5.50;99.90;;;;;;5106053;28;20071;-81
2022/01/04 12:53:54;;;;;;;4.07;1.53;;;5.50;99.90;;;;;;5095205;28;20054;-80
2022/01/04 12:56:20;;;;;;;5.33;1.03;;;5.60;99.90;;;;;;5108664;28;20048;-81
2022/01/04 12:58:45;;;;;;;4.27;1.23;;;5.70;99.90;;;;;;5093844;28;20158;-81